createdAt,value
2018-12-30T00:00:03.763Z,5.30
2018-12-30T00:05:05.212Z,5.20
2018-12-30T00:10:03.785Z,4.53
2018-12-30T00:15:03.914Z,5.33
2018-12-30T00:20:04.092Z,4.70
2018-12-30T00:25:03.172Z,4.95
2018-12-30T00:30:03.420Z,5.58
2018-12-30T00:35:03.588Z,5.10
2018-12-30T00:40:03.827Z,3.67
2018-12-30T00:45:03.920Z,4.00
2018-12-30T00:50:04.129Z,3.75
2018-12-30T00:55:03.252Z,4.53
2018-12-30T01:00:03.364Z,4.40
2018-12-30T01:05:03.362Z,4.42
2018-12-30T01:10:03.642Z,4.47
2018-12-30T01:15:03.898Z,3.90
2018-12-30T01:20:04.899Z,4.10
2018-12-30T01:25:04.006Z,5.12
2018-12-30T01:30:03.259Z,5.17
2018-12-30T01:35:03.401Z,4.10
2018-12-30T01:40:03.569Z,3.95
2018-12-30T01:45:03.650Z,4.15
2018-12-30T01:50:03.722Z,4.42
2018-12-30T01:55:03.896Z,4.55
2018-12-30T02:00:04.023Z,3.70
2018-12-30T02:05:03.090Z,3.90
2018-12-30T02:10:03.237Z,3.50
2018-12-30T02:15:03.258Z,4.53
2018-12-30T02:20:05.153Z,4.40
2018-12-30T02:25:03.425Z,3.83
2018-12-30T02:30:03.606Z,3.85
2018-12-30T02:35:03.723Z,3.85
2018-12-30T02:40:03.902Z,3.70
2018-12-30T02:45:03.961Z,3.67
2018-12-30T02:50:03.011Z,3.92
2018-12-30T02:55:03.269Z,3.72
2018-12-30T03:00:03.417Z,3.90
2018-12-30T03:05:03.506Z,3.65
2018-12-30T03:10:03.650Z,4.22
2018-12-30T03:15:03.649Z,3.65
2018-12-30T03:20:03.751Z,3.55
2018-12-30T03:25:03.815Z,3.90
2018-12-30T03:30:03.819Z,4.22
2018-12-30T03:35:03.862Z,3.75
2018-12-30T03:40:04.019Z,3.17
2018-12-30T03:45:03.252Z,3.37
2018-12-30T03:50:03.341Z,3.83
2018-12-30T03:55:03.512Z,3.40
2018-12-30T04:00:03.721Z,3.40
2018-12-30T04:05:03.773Z,4.17
2018-12-30T04:15:03.592Z,3.10
2018-12-30T04:20:03.641Z,3.50
2018-12-30T04:25:03.684Z,3.60
2018-12-30T04:30:03.794Z,3.90
2018-12-30T04:35:03.880Z,3.12
2018-12-30T04:40:04.001Z,3.62
2018-12-30T04:45:03.008Z,3.17
2018-12-30T04:50:03.094Z,3.17
2018-12-30T04:55:03.159Z,3.90
2018-12-30T05:00:03.218Z,3.72
2018-12-30T05:05:03.253Z,3.92
2018-12-30T05:10:03.362Z,3.77
2018-12-30T05:15:03.400Z,4.37
2018-12-30T05:20:03.475Z,3.72
2018-12-30T05:25:03.469Z,3.60
2018-12-30T05:30:03.287Z,3.58
2018-12-30T05:35:03.353Z,3.77
2018-12-30T05:40:03.464Z,4.00
2018-12-30T05:45:03.529Z,3.33
2018-12-30T05:50:03.177Z,3.72
2018-12-30T05:55:03.143Z,3.95
2018-12-30T06:00:03.229Z,3.92
2018-12-30T06:05:03.258Z,3.80
2018-12-30T06:10:03.356Z,3.60
2018-12-30T06:15:03.450Z,3.45
2018-12-30T06:20:03.532Z,3.62
2018-12-30T06:25:04.045Z,4.17
2018-12-30T06:30:03.075Z,3.50
2018-12-30T06:35:03.178Z,3.95
2018-12-30T06:40:10.907Z,4.20
2018-12-30T06:45:03.176Z,3.12
2018-12-30T06:50:03.238Z,3.47
2018-12-30T06:55:03.314Z,3.62
2018-12-30T07:00:03.367Z,3.75
2018-12-30T07:05:03.608Z,3.90
2018-12-30T07:10:03.666Z,3.65
2018-12-30T07:15:03.729Z,3.37
2018-12-30T07:20:03.786Z,3.12
2018-12-30T07:25:03.746Z,3.65
2018-12-30T07:30:03.793Z,3.17
2018-12-30T07:35:04.039Z,3.12
2018-12-30T07:40:03.115Z,3.25
2018-12-30T07:45:03.057Z,3.10
2018-12-30T07:50:03.106Z,3.60
2018-12-30T07:55:03.156Z,2.98
2018-12-30T08:00:03.160Z,3.00
2018-12-30T08:05:03.281Z,3.05
2018-12-30T08:10:03.376Z,3.08
2018-12-30T08:15:03.370Z,3.40
2018-12-30T08:20:03.319Z,3.60
2018-12-30T08:25:03.374Z,3.47
2018-12-30T08:30:03.410Z,3.83
2018-12-30T08:35:03.430Z,4.55
2018-12-30T08:40:03.588Z,5.00
2018-12-30T08:49:39.991Z,3.85
2018-12-30T08:50:02.474Z,2.98
2018-12-30T08:55:02.817Z,3.20
2018-12-30T08:58:07.418Z,3.10
2018-12-30T08:58:46.162Z,3.10
2018-12-30T09:00:03.199Z,3.00
2018-12-30T09:01:49.910Z,3.00
2018-12-30T09:05:02.696Z,4.42
2018-12-30T09:06:01.188Z,4.42
2018-12-30T09:10:03.118Z,3.52
2018-12-30T09:14:11.744Z,4.03
2018-12-30T09:15:39.448Z,4.17
2018-12-30T09:20:02.714Z,4.20
2018-12-30T09:25:03.131Z,3.55
2018-12-30T09:36:27.472Z,3.50
2018-12-30T09:40:03.108Z,3.65
2018-12-30T09:45:02.434Z,4.05
2018-12-30T09:50:02.784Z,4.25
2018-12-30T09:55:03.125Z,4.60
2018-12-30T10:00:02.549Z,3.33
2018-12-30T10:05:02.987Z,3.45
2018-12-30T10:10:02.415Z,3.27
2018-12-30T10:15:09.682Z,3.37
2018-12-30T10:20:02.584Z,3.02
2018-12-30T10:25:02.952Z,3.50
2018-12-30T10:30:03.391Z,3.45
2018-12-30T10:35:02.814Z,3.50
2018-12-30T10:36:35.981Z,0
2018-12-30T10:40:03.328Z,0
2018-12-30T10:45:02.758Z,0
2018-12-30T10:46:31.979Z,3.37
2018-12-30T10:50:03.184Z,3.60
2018-12-30T10:55:02.611Z,3.30
2018-12-30T11:00:02.950Z,3.37
2018-12-30T11:10:03.018Z,4.22
2018-12-30T11:15:02.465Z,3.45
2018-12-30T11:20:02.807Z,3.15
2018-12-30T11:25:03.293Z,3.25
2018-12-30T11:30:02.631Z,3.87
2018-12-30T11:35:02.985Z,3.27
2018-12-30T11:40:02.389Z,3.10
2018-12-30T11:45:02.741Z,3.08
2018-12-30T11:50:03.228Z,3.55
2018-12-30T11:55:02.588Z,3.70
2018-12-30T12:00:02.971Z,3.27
2018-12-30T12:05:02.399Z,3.80
2018-12-30T12:10:02.800Z,2.87
2018-12-30T12:15:03.140Z,3.55
2018-12-30T12:20:02.568Z,3.17
2018-12-30T12:25:02.900Z,4.80
2018-12-30T12:30:03.242Z,3.90
2018-12-30T12:35:02.670Z,3.90
2018-12-30T12:40:03.106Z,3.70
2018-12-30T12:45:02.517Z,4.97
2018-12-30T12:50:02.870Z,3.70
2018-12-30T12:55:03.349Z,4.75
2018-12-30T13:00:02.719Z,3.80
2018-12-30T13:05:03.181Z,3.27
2018-12-30T13:10:02.630Z,3.40
2018-12-30T13:15:03.031Z,3.50
2018-12-30T13:20:02.449Z,3.62
2018-12-30T13:25:02.800Z,3.42
2018-12-30T13:30:03.298Z,3.20
2018-12-30T13:35:02.679Z,3.25
2018-12-30T13:40:03.112Z,3.47
2018-12-30T13:45:02.511Z,3.95
2018-12-30T13:50:02.859Z,3.77
2018-12-30T13:55:03.204Z,4.12
2018-12-30T14:00:02.613Z,4.30
2018-12-30T14:05:02.974Z,3.87
2018-12-30T14:10:02.381Z,4.60
2018-12-30T14:15:02.828Z,4.30
2018-12-30T14:20:03.262Z,3.87
2018-12-30T14:25:02.703Z,5.55
2018-12-30T14:30:03.172Z,4.15
2018-12-30T14:35:02.524Z,3.80
2018-12-30T14:40:02.988Z,4.55
2018-12-30T14:45:02.508Z,4.40
2018-12-30T14:50:02.851Z,4.50
2018-12-30T14:55:04.126Z,4.60
2018-12-30T15:00:03.525Z,5.20
2018-12-30T15:05:03.001Z,5.08
2018-12-30T15:10:02.513Z,4.72
2018-12-30T15:15:02.944Z,6.10
2018-12-30T15:20:03.442Z,4.40
2018-12-30T15:25:02.788Z,5.50
2018-12-30T15:30:03.121Z,4.90
2018-12-30T15:35:02.449Z,6.53
2018-12-30T15:40:02.896Z,6.20
2018-12-30T15:45:03.326Z,5.03
2018-12-30T15:50:02.739Z,6.25
2018-12-30T15:55:03.088Z,7.12
2018-12-30T16:00:02.492Z,6.45
2018-12-30T16:05:02.838Z,7.95
2018-12-30T16:10:03.326Z,6.33
2018-12-30T16:15:02.695Z,5.85
2018-12-30T16:20:03.046Z,8.15
2018-12-30T16:25:02.469Z,6.22
2018-12-30T16:30:02.910Z,7.78
2018-12-30T16:35:03.357Z,10.85
2018-12-30T16:40:02.882Z,10.72
2018-12-30T16:45:03.363Z,8.20
2018-12-30T16:50:02.764Z,7.55
2018-12-30T16:55:03.184Z,8.60
2018-12-30T17:00:02.629Z,10.68
2018-12-30T17:05:03.044Z,14.38
2018-12-30T17:10:02.462Z,8.38
2018-12-30T17:15:02.805Z,11.08
2018-12-30T17:20:03.244Z,15.72
2018-12-30T17:25:02.666Z,15.43
2018-12-30T17:30:03.012Z,12.33
2018-12-30T17:35:02.357Z,11.40
2018-12-30T17:40:02.771Z,13.45
2018-12-30T17:45:03.274Z,11.85
2018-12-30T17:50:02.627Z,18.98
2018-12-30T17:55:02.981Z,13.80
2018-12-30T18:00:02.432Z,16.90
2018-12-30T18:05:02.843Z,10.85
2018-12-30T18:15:02.705Z,11.85
2018-12-30T18:20:03.178Z,14.65
2018-12-30T18:25:02.652Z,12.85
2018-12-30T18:30:03.033Z,9.98
2018-12-30T18:35:02.486Z,11.57
2018-12-30T18:40:02.903Z,10.38
2018-12-30T18:45:03.320Z,10.40
2018-12-30T18:50:02.721Z,15.93
2018-12-30T18:55:03.152Z,15.55
2018-12-30T19:00:02.595Z,15.60
2018-12-30T19:05:05.248Z,14.98
2018-12-30T19:10:02.753Z,12.23
2018-12-30T19:15:03.212Z,13.03
2018-12-30T19:20:02.609Z,11.80
2018-12-30T19:25:02.956Z,9.65
2018-12-30T19:30:03.478Z,13.58
2018-12-30T19:35:02.869Z,11.90
2018-12-30T19:40:03.374Z,9.93
2018-12-30T19:45:02.788Z,11.00
2018-12-30T19:50:03.123Z,9.40
2018-12-30T19:55:02.566Z,13.40
2018-12-30T20:00:03.029Z,13.40
2018-12-30T20:05:02.447Z,9.83
2018-12-30T20:10:02.971Z,10.95
2018-12-30T20:15:02.413Z,10.35
2018-12-30T20:20:02.825Z,10.58
2018-12-30T20:25:03.274Z,10.45
2018-12-30T20:30:02.815Z,12.88
2018-12-30T20:35:03.258Z,12.95
2018-12-30T20:40:02.744Z,13.58
2018-12-30T20:45:03.090Z,14.07
2018-12-30T20:50:02.501Z,12.82
2018-12-30T20:55:02.849Z,14.15
2018-12-30T21:00:03.502Z,13.93
2018-12-30T21:05:02.958Z,14.47
2018-12-30T21:10:02.447Z,13.28
2018-12-30T21:15:02.886Z,12.25
2018-12-30T21:20:03.370Z,12.58
2018-12-30T21:25:02.737Z,11.65
2018-12-30T21:30:03.217Z,9.88
2018-12-30T21:35:02.646Z,11.88
2018-12-30T21:40:03.093Z,12.30
2018-12-30T21:45:02.512Z,11.95
2018-12-30T21:50:02.909Z,11.53
2018-12-30T21:55:03.355Z,14.33
2018-12-30T22:00:02.773Z,13.08
2018-12-30T22:05:03.264Z,12.63
2018-12-30T22:10:03.421Z,11.48
2018-12-30T22:15:02.881Z,11.97
2018-12-30T22:20:03.364Z,9.50
2018-12-30T22:25:02.833Z,11.90
2018-12-30T22:30:03.179Z,10.58
2018-12-30T22:35:02.604Z,8.83
2018-12-30T22:40:03.003Z,11.93
2018-12-30T22:45:02.709Z,11.75
2018-12-30T22:50:03.119Z,14.78
2018-12-30T22:55:02.549Z,12.30
2018-12-30T23:00:02.975Z,12.60
2018-12-30T23:05:02.403Z,17.90
2018-12-30T23:10:02.869Z,12.40
2018-12-30T23:15:03.325Z,15.10
2018-12-30T23:20:02.730Z,13.48
2018-12-30T23:25:03.150Z,11.15
2018-12-30T23:30:02.592Z,10.60
2018-12-30T23:35:02.965Z,13.88
2018-12-30T23:40:02.424Z,13.98
2018-12-30T23:45:02.877Z,13.30
2018-12-30T23:50:03.317Z,16.80
2018-12-30T23:55:02.723Z,12.75
